sensor_id;sensor_type;location;lat;lon;timestamp;P1;durP1;ratioP1;P2;durP2;ratioP2
1416;SDS011;703;51.162;13.574;2024-03-06T00:00:09;21.93;;;19.17;;
1416;SDS011;703;51.162;13.574;2024-03-06T00:02:35;26.10;;;17.27;;
1416;SDS011;703;51.162;13.574;2024-03-06T00:05:01;22.60;;;17.87;;
1416;SDS011;703;51.162;13.574;2024-03-06T00:07:29;26.17;;;21.50;;
1416;SDS011;703;51.162;13.574;2024-03-06T00:09:55;21.77;;;15.70;;
1416;SDS011;703;51.162;13.574;2024-03-06T00:12:21;25.10;;;18.90;;
1416;SDS011;703;51.162;13.574;2024-03-06T00:14:47;19.47;;;17.47;;
1416;SDS011;703;51.162;13.574;2024-03-06T00:17:13;21.37;;;16.93;;
1416;SDS011;703;51.162;13.574;2024-03-06T00:19:38;21.63;;;16.17;;
1416;SDS011;703;51.162;13.574;2024-03-06T00:22:04;21.97;;;17.77;;
1416;SDS011;703;51.162;13.574;2024-03-06T00:24:31;21.10;;;16.77;;
1416;SDS011;703;51.162;13.574;2024-03-06T00:26:57;22.30;;;19.23;;
1416;SDS011;703;51.162;13.574;2024-03-06T00:29:23;22.27;;;16.83;;
1416;SDS011;703;51.162;13.574;2024-03-06T00:31:49;17.37;;;14.83;;
1416;SDS011;703;51.162;13.574;2024-03-06T00:34:15;21.50;;;19.20;;
1416;SDS011;703;51.162;13.574;2024-03-06T00:36:42;22.83;;;19.53;;
1416;SDS011;703;51.162;13.574;2024-03-06T00:39:11;36.00;;;22.80;;
1416;SDS011;703;51.162;13.574;2024-03-06T00:41:39;24.33;;;19.27;;
1416;SDS011;703;51.162;13.574;2024-03-06T00:44:05;23.57;;;19.90;;
1416;SDS011;703;51.162;13.574;2024-03-06T00:46:31;27.67;;;20.23;;
1416;SDS011;703;51.162;13.574;2024-03-06T00:48:57;22.40;;;17.23;;
1416;SDS011;703;51.162;13.574;2024-03-06T00:51:23;26.60;;;16.90;;
1416;SDS011;703;51.162;13.574;2024-03-06T00:53:49;22.00;;;18.87;;
1416;SDS011;703;51.162;13.574;2024-03-06T00:56:15;24.60;;;20.87;;
1416;SDS011;703;51.162;13.574;2024-03-06T00:58:40;21.90;;;17.70;;
1416;SDS011;703;51.162;13.574;2024-03-06T01:01:06;21.90;;;19.47;;
1416;SDS011;703;51.162;13.574;2024-03-06T01:03:32;25.30;;;19.07;;
1416;SDS011;703;51.162;13.574;2024-03-06T01:05:58;28.27;;;20.70;;
1416;SDS011;703;51.162;13.574;2024-03-06T01:08:24;24.93;;;20.40;;
1416;SDS011;703;51.162;13.574;2024-03-06T01:10:50;23.33;;;16.97;;
1416;SDS011;703;51.162;13.574;2024-03-06T01:13:17;18.67;;;15.73;;
1416;SDS011;703;51.162;13.574;2024-03-06T01:15:43;33.20;;;19.17;;
1416;SDS011;703;51.162;13.574;2024-03-06T01:18:09;20.07;;;17.17;;
1416;SDS011;703;51.162;13.574;2024-03-06T01:20:35;22.93;;;20.57;;
1416;SDS011;703;51.162;13.574;2024-03-06T01:23:02;25.97;;;20.00;;
1416;SDS011;703;51.162;13.574;2024-03-06T01:25:28;19.77;;;17.97;;
1416;SDS011;703;51.162;13.574;2024-03-06T01:27:53;31.03;;;19.97;;
1416;SDS011;703;51.162;13.574;2024-03-06T01:30:19;27.40;;;22.70;;
1416;SDS011;703;51.162;13.574;2024-03-06T01:32:45;21.60;;;19.47;;
1416;SDS011;703;51.162;13.574;2024-03-06T01:35:11;22.83;;;20.47;;
1416;SDS011;703;51.162;13.574;2024-03-06T01:37:37;23.40;;;20.90;;
1416;SDS011;703;51.162;13.574;2024-03-06T01:40:03;24.43;;;18.30;;
1416;SDS011;703;51.162;13.574;2024-03-06T01:42:30;25.10;;;19.50;;
1416;SDS011;703;51.162;13.574;2024-03-06T01:44:56;23.23;;;19.27;;
1416;SDS011;703;51.162;13.574;2024-03-06T01:47:22;18.70;;;16.70;;
1416;SDS011;703;51.162;13.574;2024-03-06T01:49:48;23.03;;;18.13;;
1416;SDS011;703;51.162;13.574;2024-03-06T01:52:14;18.73;;;16.77;;
1416;SDS011;703;51.162;13.574;2024-03-06T01:54:40;21.53;;;19.33;;
1416;SDS011;703;51.162;13.574;2024-03-06T01:57:06;26.57;;;18.13;;
1416;SDS011;703;51.162;13.574;2024-03-06T01:59:33;24.17;;;18.30;;
1416;SDS011;703;51.162;13.574;2024-03-06T02:01:59;23.13;;;18.57;;
1416;SDS011;703;51.162;13.574;2024-03-06T02:04:26;22.20;;;16.97;;
1416;SDS011;703;51.162;13.574;2024-03-06T02:06:53;20.27;;;18.60;;
1416;SDS011;703;51.162;13.574;2024-03-06T02:09:19;22.40;;;20.13;;
1416;SDS011;703;51.162;13.574;2024-03-06T02:11:46;19.57;;;17.77;;
1416;SDS011;703;51.162;13.574;2024-03-06T02:14:11;18.63;;;16.73;;
1416;SDS011;703;51.162;13.574;2024-03-06T02:16:38;27.17;;;20.93;;
1416;SDS011;703;51.162;13.574;2024-03-06T02:19:04;31.23;;;22.20;;
1416;SDS011;703;51.162;13.574;2024-03-06T02:21:30;29.67;;;22.23;;
1416;SDS011;703;51.162;13.574;2024-03-06T02:23:56;29.93;;;21.77;;
1416;SDS011;703;51.162;13.574;2024-03-06T02:26:23;28.10;;;18.97;;
1416;SDS011;703;51.162;13.574;2024-03-06T02:28:52;26.47;;;23.67;;
1416;SDS011;703;51.162;13.574;2024-03-06T02:31:18;29.23;;;20.40;;
1416;SDS011;703;51.162;13.574;2024-03-06T02:33:45;25.20;;;17.50;;
1416;SDS011;703;51.162;13.574;2024-03-06T02:36:12;20.07;;;17.93;;
1416;SDS011;703;51.162;13.574;2024-03-06T02:38:38;21.17;;;17.07;;
1416;SDS011;703;51.162;13.574;2024-03-06T02:41:04;29.53;;;19.17;;
1416;SDS011;703;51.162;13.574;2024-03-06T02:43:31;23.97;;;21.87;;
1416;SDS011;703;51.162;13.574;2024-03-06T02:45:57;32.83;;;21.73;;
1416;SDS011;703;51.162;13.574;2024-03-06T02:48:23;28.57;;;22.17;;
1416;SDS011;703;51.162;13.574;2024-03-06T02:50:49;22.23;;;19.90;;
1416;SDS011;703;51.162;13.574;2024-03-06T02:53:15;32.63;;;21.60;;
1416;SDS011;703;51.162;13.574;2024-03-06T02:55:41;22.00;;;17.20;;
1416;SDS011;703;51.162;13.574;2024-03-06T02:58:07;24.93;;;22.37;;
1416;SDS011;703;51.162;13.574;2024-03-06T03:00:33;20.13;;;15.87;;
1416;SDS011;703;51.162;13.574;2024-03-06T03:02:58;27.73;;;20.40;;
1416;SDS011;703;51.162;13.574;2024-03-06T03:05:24;18.67;;;16.80;;
1416;SDS011;703;51.162;13.574;2024-03-06T03:07:50;20.27;;;18.70;;
1416;SDS011;703;51.162;13.574;2024-03-06T03:10:16;21.63;;;18.50;;
1416;SDS011;703;51.162;13.574;2024-03-06T03:12:42;23.07;;;20.47;;
1416;SDS011;703;51.162;13.574;2024-03-06T03:15:08;20.93;;;17.77;;
1416;SDS011;703;51.162;13.574;2024-03-06T03:17:35;19.87;;;15.63;;
1416;SDS011;703;51.162;13.574;2024-03-06T03:20:01;26.13;;;22.93;;
1416;SDS011;703;51.162;13.574;2024-03-06T03:22:35;22.50;;;20.70;;
1416;SDS011;703;51.162;13.574;2024-03-06T03:25:01;25.47;;;20.47;;
1416;SDS011;703;51.162;13.574;2024-03-06T03:27:26;31.57;;;21.33;;
1416;SDS011;703;51.162;13.574;2024-03-06T03:29:52;19.83;;;18.23;;
1416;SDS011;703;51.162;13.574;2024-03-06T03:32:18;23.40;;;17.20;;
1416;SDS011;703;51.162;13.574;2024-03-06T03:34:44;23.37;;;20.10;;
1416;SDS011;703;51.162;13.574;2024-03-06T03:37:12;29.00;;;21.93;;
1416;SDS011;703;51.162;13.574;2024-03-06T03:39:38;22.30;;;17.27;;
1416;SDS011;703;51.162;13.574;2024-03-06T03:42:04;23.90;;;19.07;;
1416;SDS011;703;51.162;13.574;2024-03-06T03:44:31;19.03;;;17.03;;
1416;SDS011;703;51.162;13.574;2024-03-06T03:46:57;20.70;;;18.50;;
1416;SDS011;703;51.162;13.574;2024-03-06T03:49:23;27.57;;;21.20;;
1416;SDS011;703;51.162;13.574;2024-03-06T03:51:49;27.43;;;20.93;;
1416;SDS011;703;51.162;13.574;2024-03-06T03:54:15;20.80;;;19.20;;
1416;SDS011;703;51.162;13.574;2024-03-06T03:56:40;28.90;;;23.80;;
1416;SDS011;703;51.162;13.574;2024-03-06T03:59:06;22.73;;;19.60;;
1416;SDS011;703;51.162;13.574;2024-03-06T04:01:32;27.50;;;19.73;;
1416;SDS011;703;51.162;13.574;2024-03-06T04:03:58;29.07;;;20.50;;
1416;SDS011;703;51.162;13.574;2024-03-06T04:06:24;22.67;;;20.53;;
1416;SDS011;703;51.162;13.574;2024-03-06T04:08:50;30.33;;;18.63;;
1416;SDS011;703;51.162;13.574;2024-03-06T04:11:16;21.13;;;19.20;;
1416;SDS011;703;51.162;13.574;2024-03-06T04:13:42;22.27;;;18.87;;
1416;SDS011;703;51.162;13.574;2024-03-06T04:16:08;21.53;;;17.53;;
1416;SDS011;703;51.162;13.574;2024-03-06T04:18:34;20.63;;;17.73;;
1416;SDS011;703;51.162;13.574;2024-03-06T04:21:04;21.83;;;19.70;;
1416;SDS011;703;51.162;13.574;2024-03-06T04:23:30;19.47;;;16.50;;
1416;SDS011;703;51.162;13.574;2024-03-06T04:25:56;21.47;;;19.67;;
1416;SDS011;703;51.162;13.574;2024-03-06T04:28:22;25.40;;;23.43;;
1416;SDS011;703;51.162;13.574;2024-03-06T04:30:48;27.73;;;19.60;;
1416;SDS011;703;51.162;13.574;2024-03-06T04:33:14;23.20;;;20.07;;
1416;SDS011;703;51.162;13.574;2024-03-06T04:35:40;21.83;;;17.37;;
1416;SDS011;703;51.162;13.574;2024-03-06T04:38:06;25.40;;;20.10;;
1416;SDS011;703;51.162;13.574;2024-03-06T04:40:32;26.07;;;23.37;;
1416;SDS011;703;51.162;13.574;2024-03-06T04:42:59;23.40;;;21.30;;
1416;SDS011;703;51.162;13.574;2024-03-06T04:45:25;34.23;;;20.70;;
1416;SDS011;703;51.162;13.574;2024-03-06T04:47:51;24.90;;;18.63;;
1416;SDS011;703;51.162;13.574;2024-03-06T04:50:17;24.90;;;22.23;;
1416;SDS011;703;51.162;13.574;2024-03-06T04:52:43;27.27;;;20.93;;
1416;SDS011;703;51.162;13.574;2024-03-06T04:55:12;21.50;;;19.60;;
1416;SDS011;703;51.162;13.574;2024-03-06T04:57:41;24.73;;;21.50;;
1416;SDS011;703;51.162;13.574;2024-03-06T05:00:08;27.90;;;21.40;;
1416;SDS011;703;51.162;13.574;2024-03-06T05:02:35;25.33;;;22.30;;
1416;SDS011;703;51.162;13.574;2024-03-06T05:05:02;25.20;;;17.30;;
1416;SDS011;703;51.162;13.574;2024-03-06T05:07:28;28.13;;;21.40;;
1416;SDS011;703;51.162;13.574;2024-03-06T05:09:54;20.57;;;18.27;;
1416;SDS011;703;51.162;13.574;2024-03-06T05:12:21;26.33;;;18.00;;
1416;SDS011;703;51.162;13.574;2024-03-06T05:14:46;24.67;;;20.20;;
1416;SDS011;703;51.162;13.574;2024-03-06T05:17:12;23.97;;;21.47;;
1416;SDS011;703;51.162;13.574;2024-03-06T05:19:38;24.23;;;19.97;;
1416;SDS011;703;51.162;13.574;2024-03-06T05:22:04;24.70;;;22.30;;
1416;SDS011;703;51.162;13.574;2024-03-06T05:24:30;24.43;;;20.87;;
1416;SDS011;703;51.162;13.574;2024-03-06T05:26:56;29.90;;;21.57;;
1416;SDS011;703;51.162;13.574;2024-03-06T05:29:22;22.30;;;19.60;;
1416;SDS011;703;51.162;13.574;2024-03-06T05:31:48;23.33;;;20.93;;
1416;SDS011;703;51.162;13.574;2024-03-06T05:34:14;22.87;;;20.87;;
1416;SDS011;703;51.162;13.574;2024-03-06T05:36:40;34.20;;;22.30;;
1416;SDS011;703;51.162;13.574;2024-03-06T05:39:05;24.77;;;22.10;;
1416;SDS011;703;51.162;13.574;2024-03-06T05:41:32;26.13;;;21.87;;
1416;SDS011;703;51.162;13.574;2024-03-06T05:43:58;21.23;;;19.60;;
1416;SDS011;703;51.162;13.574;2024-03-06T05:46:24;23.57;;;21.37;;
1416;SDS011;703;51.162;13.574;2024-03-06T05:48:51;23.90;;;21.30;;
1416;SDS011;703;51.162;13.574;2024-03-06T05:51:17;27.43;;;22.23;;
1416;SDS011;703;51.162;13.574;2024-03-06T05:53:43;21.40;;;19.53;;
1416;SDS011;703;51.162;13.574;2024-03-06T05:56:09;24.27;;;21.70;;
1416;SDS011;703;51.162;13.574;2024-03-06T05:58:35;22.27;;;20.00;;
1416;SDS011;703;51.162;13.574;2024-03-06T06:01:01;25.07;;;22.67;;
1416;SDS011;703;51.162;13.574;2024-03-06T06:03:28;32.93;;;21.47;;
1416;SDS011;703;51.162;13.574;2024-03-06T06:05:54;25.43;;;22.43;;
1416;SDS011;703;51.162;13.574;2024-03-06T06:08:20;36.70;;;25.90;;
1416;SDS011;703;51.162;13.574;2024-03-06T06:10:46;25.33;;;22.80;;
1416;SDS011;703;51.162;13.574;2024-03-06T06:13:12;20.60;;;18.70;;
1416;SDS011;703;51.162;13.574;2024-03-06T06:15:38;26.97;;;21.47;;
1416;SDS011;703;51.162;13.574;2024-03-06T06:18:04;32.70;;;20.90;;
1416;SDS011;703;51.162;13.574;2024-03-06T06:20:30;36.27;;;23.20;;
1416;SDS011;703;51.162;13.574;2024-03-06T06:22:56;26.33;;;21.30;;
1416;SDS011;703;51.162;13.574;2024-03-06T06:25:22;25.20;;;22.90;;
1416;SDS011;703;51.162;13.574;2024-03-06T06:27:48;21.77;;;20.07;;
1416;SDS011;703;51.162;13.574;2024-03-06T06:30:14;24.80;;;22.47;;
1416;SDS011;703;51.162;13.574;2024-03-06T06:32:41;28.93;;;26.00;;
1416;SDS011;703;51.162;13.574;2024-03-06T06:35:07;38.33;;;22.27;;
1416;SDS011;703;51.162;13.574;2024-03-06T06:37:34;24.10;;;21.53;;
1416;SDS011;703;51.162;13.574;2024-03-06T06:40:00;28.70;;;23.60;;
1416;SDS011;703;51.162;13.574;2024-03-06T06:42:31;27.70;;;23.70;;
1416;SDS011;703;51.162;13.574;2024-03-06T06:44:57;41.30;;;29.33;;
1416;SDS011;703;51.162;13.574;2024-03-06T06:47:22;30.40;;;21.20;;
1416;SDS011;703;51.162;13.574;2024-03-06T06:49:48;32.47;;;25.10;;
1416;SDS011;703;51.162;13.574;2024-03-06T06:52:15;29.77;;;22.33;;
1416;SDS011;703;51.162;13.574;2024-03-06T06:54:41;22.10;;;19.80;;
1416;SDS011;703;51.162;13.574;2024-03-06T06:57:07;42.60;;;34.40;;
1416;SDS011;703;51.162;13.574;2024-03-06T06:59:33;29.23;;;26.10;;
1416;SDS011;703;51.162;13.574;2024-03-06T07:01:59;32.53;;;27.50;;
1416;SDS011;703;51.162;13.574;2024-03-06T07:04:25;42.57;;;33.10;;
1416;SDS011;703;51.162;13.574;2024-03-06T07:06:51;29.63;;;24.40;;
1416;SDS011;703;51.162;13.574;2024-03-06T07:09:17;32.20;;;23.33;;
1416;SDS011;703;51.162;13.574;2024-03-06T07:11:43;35.00;;;26.63;;
1416;SDS011;703;51.162;13.574;2024-03-06T07:14:09;23.40;;;21.07;;
1416;SDS011;703;51.162;13.574;2024-03-06T07:16:41;27.13;;;24.43;;
1416;SDS011;703;51.162;13.574;2024-03-06T07:19:07;28.57;;;24.07;;
1416;SDS011;703;51.162;13.574;2024-03-06T07:21:33;23.97;;;21.53;;
1416;SDS011;703;51.162;13.574;2024-03-06T07:23:59;25.33;;;22.50;;
1416;SDS011;703;51.162;13.574;2024-03-06T07:26:25;35.97;;;24.03;;
1416;SDS011;703;51.162;13.574;2024-03-06T07:28:51;28.77;;;22.17;;
1416;SDS011;703;51.162;13.574;2024-03-06T07:31:17;29.87;;;24.27;;
1416;SDS011;703;51.162;13.574;2024-03-06T07:33:43;37.00;;;27.10;;
1416;SDS011;703;51.162;13.574;2024-03-06T07:36:09;24.20;;;21.70;;
1416;SDS011;703;51.162;13.574;2024-03-06T07:38:35;27.60;;;22.73;;
1416;SDS011;703;51.162;13.574;2024-03-06T07:41:01;29.70;;;23.97;;
1416;SDS011;703;51.162;13.574;2024-03-06T07:43:27;30.70;;;21.37;;
1416;SDS011;703;51.162;13.574;2024-03-06T07:45:53;27.67;;;24.70;;
1416;SDS011;703;51.162;13.574;2024-03-06T07:48:19;27.90;;;20.63;;
1416;SDS011;703;51.162;13.574;2024-03-06T07:50:45;27.27;;;21.60;;
1416;SDS011;703;51.162;13.574;2024-03-06T07:53:10;30.50;;;23.43;;
1416;SDS011;703;51.162;13.574;2024-03-06T07:55:36;35.23;;;25.50;;
1416;SDS011;703;51.162;13.574;2024-03-06T07:58:03;33.47;;;26.63;;
1416;SDS011;703;51.162;13.574;2024-03-06T08:00:29;25.70;;;23.40;;
1416;SDS011;703;51.162;13.574;2024-03-06T08:02:56;31.87;;;28.47;;
1416;SDS011;703;51.162;13.574;2024-03-06T08:05:22;24.13;;;21.00;;
1416;SDS011;703;51.162;13.574;2024-03-06T08:07:48;25.80;;;22.40;;
1416;SDS011;703;51.162;13.574;2024-03-06T08:10:14;36.43;;;25.03;;
1416;SDS011;703;51.162;13.574;2024-03-06T08:12:43;20.97;;;18.83;;
1416;SDS011;703;51.162;13.574;2024-03-06T08:15:13;29.97;;;24.17;;
1416;SDS011;703;51.162;13.574;2024-03-06T08:17:40;29.97;;;23.90;;
1416;SDS011;703;51.162;13.574;2024-03-06T08:20:09;27.60;;;20.27;;
1416;SDS011;703;51.162;13.574;2024-03-06T08:22:39;22.73;;;20.40;;
1416;SDS011;703;51.162;13.574;2024-03-06T08:25:09;29.60;;;23.20;;
1416;SDS011;703;51.162;13.574;2024-03-06T08:27:36;27.00;;;21.53;;
1416;SDS011;703;51.162;13.574;2024-03-06T08:30:03;33.87;;;22.43;;
1416;SDS011;703;51.162;13.574;2024-03-06T08:32:29;32.80;;;27.03;;
1416;SDS011;703;51.162;13.574;2024-03-06T08:34:56;30.47;;;24.60;;
1416;SDS011;703;51.162;13.574;2024-03-06T08:37:22;30.47;;;27.00;;
1416;SDS011;703;51.162;13.574;2024-03-06T08:39:48;24.27;;;21.73;;
1416;SDS011;703;51.162;13.574;2024-03-06T08:42:14;35.53;;;24.20;;
1416;SDS011;703;51.162;13.574;2024-03-06T08:44:43;23.10;;;21.10;;
1416;SDS011;703;51.162;13.574;2024-03-06T08:47:09;33.87;;;25.13;;
1416;SDS011;703;51.162;13.574;2024-03-06T08:49:35;29.37;;;26.27;;
1416;SDS011;703;51.162;13.574;2024-03-06T08:52:01;28.63;;;24.47;;
1416;SDS011;703;51.162;13.574;2024-03-06T08:54:26;27.47;;;23.73;;
1416;SDS011;703;51.162;13.574;2024-03-06T08:56:52;30.90;;;23.67;;
1416;SDS011;703;51.162;13.574;2024-03-06T08:59:23;34.23;;;24.70;;
1416;SDS011;703;51.162;13.574;2024-03-06T09:01:49;29.27;;;22.20;;
1416;SDS011;703;51.162;13.574;2024-03-06T09:04:15;27.40;;;24.27;;
1416;SDS011;703;51.162;13.574;2024-03-06T09:06:41;26.57;;;22.40;;
1416;SDS011;703;51.162;13.574;2024-03-06T09:09:07;28.23;;;25.33;;
1416;SDS011;703;51.162;13.574;2024-03-06T09:11:34;41.33;;;25.93;;
1416;SDS011;703;51.162;13.574;2024-03-06T09:14:00;25.40;;;22.70;;
1416;SDS011;703;51.162;13.574;2024-03-06T09:16:26;31.70;;;22.60;;
1416;SDS011;703;51.162;13.574;2024-03-06T09:18:52;24.93;;;22.47;;
1416;SDS011;703;51.162;13.574;2024-03-06T09:21:18;38.80;;;26.67;;
1416;SDS011;703;51.162;13.574;2024-03-06T09:23:44;32.40;;;22.80;;
1416;SDS011;703;51.162;13.574;2024-03-06T09:26:10;27.00;;;23.70;;
1416;SDS011;703;51.162;13.574;2024-03-06T09:28:36;37.67;;;27.10;;
1416;SDS011;703;51.162;13.574;2024-03-06T09:31:03;31.73;;;27.47;;
1416;SDS011;703;51.162;13.574;2024-03-06T09:33:29;34.13;;;29.07;;
1416;SDS011;703;51.162;13.574;2024-03-06T09:35:55;32.43;;;26.03;;
1416;SDS011;703;51.162;13.574;2024-03-06T09:38:22;33.20;;;23.80;;
1416;SDS011;703;51.162;13.574;2024-03-06T09:40:48;32.20;;;26.53;;
1416;SDS011;703;51.162;13.574;2024-03-06T09:43:16;35.77;;;25.17;;
1416;SDS011;703;51.162;13.574;2024-03-06T09:45:42;35.83;;;26.80;;
1416;SDS011;703;51.162;13.574;2024-03-06T09:48:09;27.60;;;21.20;;
1416;SDS011;703;51.162;13.574;2024-03-06T09:50:35;33.77;;;23.57;;
1416;SDS011;703;51.162;13.574;2024-03-06T09:53:06;30.60;;;27.30;;
1416;SDS011;703;51.162;13.574;2024-03-06T09:55:34;28.17;;;22.53;;
1416;SDS011;703;51.162;13.574;2024-03-06T09:58:00;41.53;;;31.03;;
1416;SDS011;703;51.162;13.574;2024-03-06T10:00:28;41.03;;;27.37;;
1416;SDS011;703;51.162;13.574;2024-03-06T10:02:58;30.17;;;22.93;;
1416;SDS011;703;51.162;13.574;2024-03-06T10:05:27;34.47;;;26.80;;
1416;SDS011;703;51.162;13.574;2024-03-06T10:07:53;37.50;;;28.40;;
1416;SDS011;703;51.162;13.574;2024-03-06T10:10:20;30.33;;;22.93;;
1416;SDS011;703;51.162;13.574;2024-03-06T10:12:49;44.23;;;30.87;;
1416;SDS011;703;51.162;13.574;2024-03-06T10:15:15;45.73;;;31.50;;
1416;SDS011;703;51.162;13.574;2024-03-06T10:17:41;34.20;;;26.00;;
1416;SDS011;703;51.162;13.574;2024-03-06T10:20:20;39.23;;;27.20;;
1416;SDS011;703;51.162;13.574;2024-03-06T10:22:49;35.90;;;26.33;;
1416;SDS011;703;51.162;13.574;2024-03-06T10:25:18;32.57;;;24.63;;
1416;SDS011;703;51.162;13.574;2024-03-06T10:27:44;39.43;;;27.13;;
1416;SDS011;703;51.162;13.574;2024-03-06T10:30:10;38.00;;;25.43;;
1416;SDS011;703;51.162;13.574;2024-03-06T10:32:40;31.73;;;26.03;;
1416;SDS011;703;51.162;13.574;2024-03-06T10:35:17;44.53;;;29.00;;
1416;SDS011;703;51.162;13.574;2024-03-06T10:37:43;34.67;;;27.83;;
1416;SDS011;703;51.162;13.574;2024-03-06T10:40:09;45.13;;;25.07;;
1416;SDS011;703;51.162;13.574;2024-03-06T10:42:38;32.27;;;26.13;;
1416;SDS011;703;51.162;13.574;2024-03-06T10:45:07;41.13;;;24.93;;
1416;SDS011;703;51.162;13.574;2024-03-06T10:47:33;39.10;;;27.27;;
1416;SDS011;703;51.162;13.574;2024-03-06T10:50:02;42.20;;;27.47;;
1416;SDS011;703;51.162;13.574;2024-03-06T10:52:29;35.40;;;25.53;;
1416;SDS011;703;51.162;13.574;2024-03-06T10:54:58;53.63;;;26.87;;
1416;SDS011;703;51.162;13.574;2024-03-06T10:57:24;39.23;;;26.00;;
1416;SDS011;703;51.162;13.574;2024-03-06T10:59:51;40.60;;;25.93;;
1416;SDS011;703;51.162;13.574;2024-03-06T11:02:17;35.53;;;27.43;;
1416;SDS011;703;51.162;13.574;2024-03-06T11:04:44;39.27;;;29.17;;
1416;SDS011;703;51.162;13.574;2024-03-06T11:07:10;30.57;;;26.30;;
1416;SDS011;703;51.162;13.574;2024-03-06T11:09:36;37.80;;;22.73;;
1416;SDS011;703;51.162;13.574;2024-03-06T11:12:06;27.23;;;21.40;;
1416;SDS011;703;51.162;13.574;2024-03-06T11:14:32;38.40;;;28.80;;
1416;SDS011;703;51.162;13.574;2024-03-06T11:17:03;40.90;;;27.53;;
1416;SDS011;703;51.162;13.574;2024-03-06T11:19:29;42.37;;;26.30;;
1416;SDS011;703;51.162;13.574;2024-03-06T11:21:55;37.87;;;28.17;;
1416;SDS011;703;51.162;13.574;2024-03-06T11:24:22;31.53;;;24.47;;
1416;SDS011;703;51.162;13.574;2024-03-06T11:26:55;38.10;;;25.37;;
1416;SDS011;703;51.162;13.574;2024-03-06T11:29:26;32.60;;;25.20;;
1416;SDS011;703;51.162;13.574;2024-03-06T11:31:59;32.03;;;23.80;;
1416;SDS011;703;51.162;13.574;2024-03-06T11:34:26;31.17;;;22.50;;
1416;SDS011;703;51.162;13.574;2024-03-06T11:36:56;32.20;;;22.40;;
1416;SDS011;703;51.162;13.574;2024-03-06T11:39:22;32.07;;;25.40;;
1416;SDS011;703;51.162;13.574;2024-03-06T11:41:49;41.87;;;24.73;;
1416;SDS011;703;51.162;13.574;2024-03-06T11:44:15;30.40;;;22.90;;
1416;SDS011;703;51.162;13.574;2024-03-06T11:46:45;32.83;;;22.87;;
1416;SDS011;703;51.162;13.574;2024-03-06T11:49:17;34.10;;;22.57;;
1416;SDS011;703;51.162;13.574;2024-03-06T11:51:45;38.30;;;24.27;;
1416;SDS011;703;51.162;13.574;2024-03-06T11:54:12;34.00;;;23.30;;
1416;SDS011;703;51.162;13.574;2024-03-06T11:56:42;46.53;;;26.37;;
1416;SDS011;703;51.162;13.574;2024-03-06T11:59:09;31.53;;;25.67;;
1416;SDS011;703;51.162;13.574;2024-03-06T12:01:36;42.03;;;27.83;;
1416;SDS011;703;51.162;13.574;2024-03-06T12:04:02;32.53;;;27.27;;
1416;SDS011;703;51.162;13.574;2024-03-06T12:06:29;37.27;;;28.13;;
1416;SDS011;703;51.162;13.574;2024-03-06T12:08:55;29.00;;;25.90;;
1416;SDS011;703;51.162;13.574;2024-03-06T12:11:21;36.73;;;23.30;;
1416;SDS011;703;51.162;13.574;2024-03-06T12:13:48;27.43;;;21.77;;
1416;SDS011;703;51.162;13.574;2024-03-06T12:16:14;34.57;;;22.10;;
1416;SDS011;703;51.162;13.574;2024-03-06T12:18:40;34.37;;;24.70;;
1416;SDS011;703;51.162;13.574;2024-03-06T12:21:05;37.37;;;24.73;;
1416;SDS011;703;51.162;13.574;2024-03-06T12:23:31;27.80;;;22.93;;
1416;SDS011;703;51.162;13.574;2024-03-06T12:26:04;35.43;;;23.90;;
1416;SDS011;703;51.162;13.574;2024-03-06T12:28:31;32.37;;;22.37;;
1416;SDS011;703;51.162;13.574;2024-03-06T12:30:57;29.10;;;23.47;;
1416;SDS011;703;51.162;13.574;2024-03-06T12:33:26;33.43;;;23.40;;
1416;SDS011;703;51.162;13.574;2024-03-06T12:36:05;40.87;;;21.33;;
1416;SDS011;703;51.162;13.574;2024-03-06T12:38:32;34.23;;;23.03;;
1416;SDS011;703;51.162;13.574;2024-03-06T12:40:58;32.57;;;21.17;;
1416;SDS011;703;51.162;13.574;2024-03-06T12:43:25;24.77;;;20.20;;
1416;SDS011;703;51.162;13.574;2024-03-06T12:45:51;30.77;;;20.87;;
1416;SDS011;703;51.162;13.574;2024-03-06T12:48:19;26.10;;;23.40;;
1416;SDS011;703;51.162;13.574;2024-03-06T12:50:45;25.17;;;19.60;;
1416;SDS011;703;51.162;13.574;2024-03-06T12:53:16;26.43;;;19.70;;
1416;SDS011;703;51.162;13.574;2024-03-06T12:55:42;27.93;;;25.03;;
1416;SDS011;703;51.162;13.574;2024-03-06T12:58:10;25.53;;;22.10;;
1416;SDS011;703;51.162;13.574;2024-03-06T13:00:36;32.30;;;21.07;;
1416;SDS011;703;51.162;13.574;2024-03-06T13:03:02;28.00;;;22.50;;
1416;SDS011;703;51.162;13.574;2024-03-06T13:05:29;25.17;;;21.90;;
1416;SDS011;703;51.162;13.574;2024-03-06T13:07:56;27.30;;;21.40;;
1416;SDS011;703;51.162;13.574;2024-03-06T13:10:22;24.20;;;21.60;;
1416;SDS011;703;51.162;13.574;2024-03-06T13:12:48;29.23;;;21.50;;
1416;SDS011;703;51.162;13.574;2024-03-06T13:15:14;34.67;;;23.67;;
1416;SDS011;703;51.162;13.574;2024-03-06T13:17:40;23.13;;;20.73;;
